Time;durP1;ratioP1;P1;durP2;ratioP2;P2;SDS_P1;SDS_P2;PMS_P1;PMS_P2;Temp;Humidity;BMP_temperature;BMP_pressure;BME280_temperature;BME280_humidity;BME280_pressure;Samples;Min_cycle;Max_cycle;Signal;HPM_P1;HPM_P2
2021/04/06 00:03:00;;;;;;;2.97;1.17;;;-3.30;99.90;;;;;;4944183;29;20508;-96
2021/04/06 00:18:28;;;;;;;3.58;1.20;;;-3.40;99.90;;;;;;4928011;29;20431;-96
2021/04/06 00:21:38;;;;;;;2.83;1.40;;;-3.30;99.90;;;;;;4911827;29;20437;-95
2021/04/06 00:25:15;;;;;;;3.85;1.58;;;-3.40;99.90;;;;;;4917511;29;20420;-96
2021/04/06 00:54:23;;;;;;;6.50;1.52;;;-3.40;99.90;;;;;;5811496;23;20414;-95
2021/04/06 01:04:31;;;;;;;4.30;2.03;;;-3.40;99.90;;;;;;3267564;23;20615;-92
2021/04/06 01:07:49;;;;;;;5.93;2.13;;;-3.40;99.90;;;;;;4875781;29;20445;-96
2021/04/06 01:38:40;;;;;;;2.10;1.53;;;-4.10;99.90;;;;;;5694249;23;20411;31
2021/04/06 01:41:32;;;;;;;3.35;1.65;;;-4.10;99.90;;;;;;4898534;29;20424;-96
2021/04/06 01:44:31;;;;;;;2.63;1.83;;;-4.10;99.90;;;;;;4874304;29;20445;-96
2021/04/06 01:47:14;;;;;;;5.18;2.30;;;-4.10;99.90;;;;;;4880855;29;20427;-95
2021/04/06 01:50:19;;;;;;;5.95;2.25;;;-4.20;99.90;;;;;;4867588;29;20432;-96
2021/04/06 01:53:01;;;;;;;7.60;1.40;;;-4.00;99.90;;;;;;4880963;29;20442;-94
2021/04/06 01:55:54;;;;;;;4.00;2.28;;;-3.90;99.90;;;;;;5189466;23;20499;-96
2021/04/06 01:59:21;;;;;;;6.90;3.25;;;-3.90;99.90;;;;;;4896752;29;20590;-95
2021/04/06 02:02:16;;;;;;;7.80;3.20;;;-3.90;99.90;;;;;;5129123;23;20429;-96
2021/04/06 02:06:02;;;;;;;9.73;3.67;;;-3.90;99.90;;;;;;5090250;23;20508;-96
2021/04/06 02:12:25;;;;;;;4.95;2.67;;;-3.80;99.90;;;;;;4986750;23;20465;-94
2021/04/06 02:15:12;;;;;;;8.48;3.83;;;-3.80;99.90;;;;;;5121575;23;20527;-95
2021/04/06 02:18:09;;;;;;;7.50;3.42;;;-3.80;99.90;;;;;;4899989;29;20961;-95
2021/04/06 02:24:36;;;;;;;5.32;3.20;;;-3.80;99.90;;;;;;5379235;23;20520;-95
2021/04/06 02:27:50;;;;;;;7.28;2.70;;;-3.80;99.90;;;;;;4940508;23;20441;-96
2021/04/06 02:30:37;;;;;;;5.18;2.53;;;-3.80;99.90;;;;;;4916215;29;21033;-96
2021/04/06 02:33:05;;;;;;;6.38;3.33;;;-4.00;99.90;;;;;;4917107;29;20441;-96
2021/04/06 02:35:36;;;;;;;7.05;3.63;;;-3.90;99.90;;;;;;4915992;29;20421;-96
2021/04/06 02:39:13;;;;;;;5.97;3.37;;;-4.00;99.90;;;;;;4876209;29;20476;-95
2021/04/06 02:42:43;;;;;;;6.80;3.10;;;-4.00;99.90;;;;;;4848504;29;20415;-96
2021/04/06 02:45:43;;;;;;;4.75;2.33;;;-4.00;99.90;;;;;;4820107;29;20516;-95
2021/04/06 02:48:42;;;;;;;8.13;3.63;;;-3.90;99.90;;;;;;4822757;29;20437;-94
2021/04/06 02:52:19;;;;;;;6.60;3.13;;;-4.00;99.90;;;;;;4834187;29;20424;-95
2021/04/06 02:55:08;;;;;;;4.47;2.55;;;-3.90;99.90;;;;;;4853021;29;20450;-95
2021/04/06 02:58:14;;;;;;;9.32;3.80;;;-3.90;99.90;;;;;;4820117;29;20451;-95
2021/04/06 03:00:50;;;;;;;9.23;4.07;;;-4.00;99.90;;;;;;4806332;29;20471;-96
2021/04/06 03:03:38;;;;;;;7.72;3.10;;;-4.00;99.90;;;;;;4820034;29;20438;-94
2021/04/06 03:06:39;;;;;;;6.77;3.17;;;-4.00;99.90;;;;;;4801722;30;20480;-94
2021/04/06 03:10:11;;;;;;;9.10;4.10;;;-3.90;99.90;;;;;;4769491;30;20412;-95
2021/04/06 03:12:57;;;;;;;5.00;2.83;;;-4.00;99.90;;;;;;4791878;30;20461;-95
2021/04/06 03:15:45;;;;;;;6.73;3.83;;;-4.10;99.90;;;;;;4784508;30;20486;-95
2021/04/06 03:18:14;;;;;;;7.73;2.57;;;-4.10;99.90;;;;;;4781733;30;20461;-95
2021/04/06 03:20:44;;;;;;;8.10;4.25;;;-4.10;99.90;;;;;;4796160;30;20501;-94
2021/04/06 03:23:15;;;;;;;8.70;5.22;;;-4.10;99.90;;;;;;4826931;29;20556;-95
2021/04/06 03:25:50;;;;;;;12.15;4.07;;;-4.10;99.90;;;;;;4837114;29;20493;-96
2021/04/06 03:28:20;;;;;;;8.77;4.35;;;-4.10;99.90;;;;;;4809852;29;20480;-95
2021/04/06 03:30:54;;;;;;;9.18;4.47;;;-4.10;99.90;;;;;;4821644;29;20449;-94
2021/04/06 03:33:43;;;;;;;8.10;4.15;;;-4.10;99.90;;;;;;4824857;29;20545;-96
2021/04/06 03:36:39;;;;;;;9.32;5.32;;;-4.10;99.90;;;;;;4821440;29;20530;-96
2021/04/06 03:39:08;;;;;;;5.47;3.10;;;-4.10;99.90;;;;;;4892836;29;20447;-96
2021/04/06 03:41:42;;;;;;;9.32;3.83;;;-4.10;99.90;;;;;;4902728;29;20487;-96
2021/04/06 03:50:46;;;;;;;8.05;3.78;;;-4.30;99.90;;;;;;4943125;23;20445;-95
2021/04/06 03:53:15;;;;;;;12.50;5.93;;;-4.40;99.90;;;;;;4918382;29;20457;-95
2021/04/06 03:56:14;;;;;;;6.05;3.72;;;-4.40;99.90;;;;;;4915513;29;20444;-96
2021/04/06 03:59:00;;;;;;;11.27;5.00;;;-4.30;99.90;;;;;;5162798;23;20449;-96
2021/04/06 04:13:42;;;;;;;10.30;5.70;;;-4.40;99.90;;;;;;4942828;23;20452;-96
2021/04/06 04:16:12;;;;;;;9.82;4.63;;;-4.40;99.90;;;;;;4946711;29;20761;-95
2021/04/06 04:18:53;;;;;;;9.68;5.65;;;-4.30;99.90;;;;;;4935562;29;20444;-96
2021/04/06 04:21:39;;;;;;;11.30;4.22;;;-4.30;99.90;;;;;;4903749;29;20415;-96
2021/04/06 04:24:10;;;;;;;22.67;5.40;;;-4.30;99.90;;;;;;4915782;29;20438;-95
2021/04/06 04:26:43;;;;;;;14.00;6.32;;;-4.40;99.90;;;;;;4945431;29;20438;-96
2021/04/06 04:29:12;;;;;;;12.77;6.60;;;-4.30;99.90;;;;;;4932903;29;20431;-96
2021/04/06 04:31:59;;;;;;;10.27;5.07;;;-4.30;99.90;;;;;;4928074;29;20504;-95
2021/04/06 04:34:36;;;;;;;10.07;5.60;;;-4.30;99.90;;;;;;4931641;29;20432;-96
2021/04/06 04:37:17;;;;;;;5.13;3.03;;;-4.40;99.90;;;;;;4862860;29;20994;-96
2021/04/06 04:40:02;;;;;;;6.85;3.83;;;-4.40;99.90;;;;;;4862028;29;20469;-96
2021/04/06 04:42:37;;;;;;;5.13;3.55;;;-4.50;99.90;;;;;;4888450;29;20440;-94
2021/04/06 04:45:07;;;;;;;5.95;3.58;;;-4.30;99.90;;;;;;4874798;29;21088;-95
2021/04/06 04:48:05;;;;;;;5.55;3.22;;;-4.40;99.90;;;;;;4876018;29;20460;-95
2021/04/06 04:50:50;;;;;;;7.13;3.45;;;-4.50;99.90;;;;;;4833174;29;20547;-96
2021/04/06 04:53:36;;;;;;;9.30;5.18;;;-4.50;99.90;;;;;;4794695;29;20441;-96
2021/04/06 04:56:20;;;;;;;7.63;3.33;;;-4.60;99.90;;;;;;4835314;29;20547;-95
2021/04/06 04:58:48;;;;;;;11.60;4.40;;;-4.60;99.90;;;;;;4821107;29;20622;-95
2021/04/06 05:01:34;;;;;;;7.38;4.40;;;-4.60;99.90;;;;;;4822958;29;20510;-95
2021/04/06 05:04:58;;;;;;;12.73;5.07;;;-4.60;99.90;;;;;;4882125;23;21335;-94
2021/04/06 05:08:12;;;;;;;10.63;5.68;;;-4.70;99.90;;;;;;4931360;29;20928;-95
2021/04/06 05:19:08;;;;;;;9.30;3.85;;;-4.30;99.90;;;;;;5106495;23;20435;-95
2021/04/06 05:41:10;;;;;;;9.50;4.78;;;-4.30;99.90;;;;;;5230285;23;21175;-93
2021/04/06 06:09:19;;;;;;;7.72;4.47;;;-4.20;99.90;;;;;;5105320;23;20430;-94
2021/04/06 06:45:50;;;;;;;9.25;3.92;;;-4.00;99.90;;;;;;1966302;23;22118;-93
2021/04/06 06:48:39;;;;;;;9.20;4.53;;;-3.90;99.90;;;;;;5244034;23;20631;-96
2021/04/06 06:51:44;;;;;;;13.15;5.72;;;-3.80;99.90;;;;;;4940304;29;20454;-95
2021/04/06 06:54:56;;;;;;;9.50;4.87;;;-3.70;99.90;;;;;;4942753;29;20482;-94
2021/04/06 06:57:38;;;;;;;9.95;4.10;;;-3.70;99.90;;;;;;4947245;29;20439;-96
2021/04/06 07:15:56;;;;;;;7.53;3.70;;;-3.60;99.90;;;;;;4932189;29;20478;-95
2021/04/06 07:18:58;;;;;;;5.50;3.15;;;-3.00;99.90;;;;;;4918183;29;20425;-95
2021/04/06 08:07:50;;;;;;;9.40;3.38;;;-2.80;99.90;;;;;;4930650;23;20445;-96
2021/04/06 08:10:59;;;;;;;7.40;2.97;;;-3.10;99.90;;;;;;4881561;29;20461;-96
2021/04/06 08:13:47;;;;;;;4.68;2.47;;;-3.00;99.90;;;;;;4822874;29;20437;-95
2021/04/06 08:17:13;;;;;;;4.65;2.72;;;-3.00;99.90;;;;;;4835540;29;20446;-96
2021/04/06 08:20:44;;;;;;;;;;;;;;;;;;;;;
2021/04/06 08:24:34;;;;;;;8.68;3.30;;;-2.70;99.90;;;;;;4804640;30;20460;-96
2021/04/06 08:27:35;;;;;;;7.23;2.77;;;-2.80;99.90;;;;;;4798958;30;20437;-95
2021/04/06 08:30:56;;;;;;;4.93;2.80;;;-2.70;99.90;;;;;;4839479;29;20432;-95
2021/04/06 08:34:46;;;;;;;7.82;3.47;;;-2.70;99.90;;;;;;5005885;23;20525;-96
2021/04/06 08:37:46;;;;;;;7.30;3.55;;;-3.00;99.90;;;;;;4939257;29;20415;-94
2021/04/06 08:40:47;;;;;;;7.85;2.90;;;-3.10;99.90;;;;;;4907641;29;20431;-94
2021/04/06 08:43:23;;;;;;;6.40;2.97;;;-3.10;99.90;;;;;;4888410;29;20455;-93
2021/04/06 08:46:16;;;;;;;4.60;2.55;;;-3.20;99.90;;;;;;4949692;29;20446;-94
2021/04/06 08:48:43;;;;;;;7.82;3.10;;;-3.20;99.90;;;;;;4933811;29;20479;-95
2021/04/06 08:51:30;;;;;;;8.30;3.03;;;-3.20;99.90;;;;;;4934904;29;20435;-94
2021/04/06 08:54:23;;;;;;;7.32;3.42;;;-3.00;99.90;;;;;;4937467;29;20411;-94
2021/04/06 08:57:25;;;;;;;9.60;3.72;;;-3.10;99.90;;;;;;4936772;29;20439;-96
2021/04/06 09:07:19;;;;;;;9.30;3.95;;;-3.20;99.90;;;;;;5364260;23;20424;-96
2021/04/06 09:10:39;;;;;;;6.72;3.10;;;-3.00;99.90;;;;;;4940758;29;20746;-96
2021/04/06 09:13:28;;;;;;;8.95;3.95;;;-2.90;99.90;;;;;;5049014;23;20423;-94
2021/04/06 09:25:21;;;;;;;6.57;2.78;;;-2.90;99.90;;;;;;5076251;23;20450;-94
2021/04/06 09:28:38;;;;;;;11.88;3.58;;;-2.90;99.90;;;;;;4948153;29;20464;-95
2021/04/06 09:32:03;;;;;;;10.38;3.83;;;-2.90;99.90;;;;;;4955436;29;20445;-95
2021/04/06 09:34:38;;;;;;;6.15;2.67;;;-2.80;99.90;;;;;;4971935;29;20433;-93
2021/04/06 09:37:31;;;;;;;10.25;2.97;;;-2.90;99.90;;;;;;4955785;29;20416;-93
2021/04/06 09:40:28;;;;;;;10.10;2.30;;;-2.90;99.90;;;;;;4972965;29;20926;-92
2021/04/06 09:42:59;;;;;;;11.00;3.15;;;-2.90;99.90;;;;;;4964500;29;20470;-96
2021/04/06 09:45:32;;;;;;;7.50;2.45;;;-2.90;99.90;;;;;;4916213;29;20491;-94
2021/04/06 09:48:31;;;;;;;7.78;2.55;;;-2.80;99.90;;;;;;4902495;29;20434;-93
2021/04/06 09:55:33;;;;;;;7.80;2.88;;;-2.70;99.90;;;;;;4915439;29;20474;-95
2021/04/06 09:58:28;;;;;;;7.20;2.28;;;-2.70;99.90;;;;;;4917373;29;20441;-96
2021/04/06 10:10:01;;;;;;;4.45;2.35;;;-2.70;99.90;;;;;;4895787;29;20439;-95
2021/04/06 10:13:17;;;;;;;8.10;2.90;;;-2.50;99.90;;;;;;4895871;29;20441;-95
2021/04/06 10:16:13;;;;;;;11.70;4.03;;;-2.60;99.90;;;;;;4895105;29;20472;-95
2021/04/06 10:19:19;;;;;;;8.30;2.67;;;-2.50;99.90;;;;;;4866029;29;20507;-96
2021/04/06 10:22:49;;;;;;;6.40;2.70;;;-2.20;99.90;;;;;;4832266;29;20442;-96
2021/04/06 10:25:40;;;;;;;10.10;3.08;;;-2.40;99.90;;;;;;4787249;30;20444;-96
2021/04/06 10:28:39;;;;;;;8.95;2.83;;;-2.30;99.90;;;;;;4802327;30;20490;-95
2021/04/06 10:31:51;;;;;;;6.00;2.60;;;-2.20;99.90;;;;;;4796530;29;20437;-95
2021/04/06 10:34:28;;;;;;;6.38;2.10;;;-2.00;99.90;;;;;;4786659;30;20465;-95
2021/04/06 10:37:16;;;;;;;4.88;2.28;;;-1.60;99.90;;;;;;4788607;30;20441;-95
2021/04/06 10:40:25;;;;;;;7.15;2.70;;;-1.50;99.90;;;;;;4803639;30;20445;-96
2021/04/06 10:43:48;;;;;;;8.77;2.72;;;-1.30;99.90;;;;;;4890719;23;20444;-95
2021/04/06 10:46:25;;;;;;;5.35;2.33;;;-0.50;99.90;;;;;;4920300;29;20429;-95
2021/04/06 10:49:40;;;;;;;7.53;2.10;;;-0.20;99.90;;;;;;4918879;29;20430;-94
2021/04/06 10:52:16;;;;;;;5.28;1.92;;;-0.80;99.90;;;;;;4933319;29;20453;-93
2021/04/06 10:55:43;;;;;;;4.30;1.80;;;-1.10;99.90;;;;;;4919738;29;20459;-95
2021/04/06 10:58:53;;;;;;;5.28;2.03;;;-1.20;99.90;;;;;;4856762;29;20474;-96
2021/04/06 11:04:50;;;;;;;3.88;1.92;;;-1.10;99.90;;;;;;4419968;23;20760;-95
2021/04/06 11:10:34;;;;;;;5.38;2.40;;;-0.70;99.90;;;;;;4844689;29;20428;-96
2021/04/06 11:13:18;;;;;;;3.63;1.92;;;-0.70;99.90;;;;;;4802364;29;20432;-95
2021/04/06 11:15:54;;;;;;;4.25;2.05;;;-0.30;99.90;;;;;;4851004;29;20846;-96
2021/04/06 11:18:24;;;;;;;6.60;2.40;;;-0.20;99.90;;;;;;4837921;29;20471;-96
2021/04/06 11:21:13;;;;;;;5.30;1.95;;;-0.50;99.90;;;;;;4826687;29;20448;-96
2021/04/06 11:24:48;;;;;;;2.28;1.48;;;-0.40;99.90;;;;;;4845555;29;20564;-95
2021/04/06 11:30:46;;;;;;;3.58;2.58;;;-1.40;99.90;;;;;;4970316;23;20467;-96
2021/04/06 11:33:47;;;;;;;5.32;3.42;;;-1.90;99.90;;;;;;4925726;29;20411;-95
2021/04/06 12:14:55;;;;;;;7.07;3.10;;;0.50;99.90;;;;;;5192316;23;20437;-94
2021/04/06 12:24:26;;;;;;;7.95;3.50;;;-0.10;99.90;;;;;;5134094;23;20443;-96
2021/04/06 12:31:15;;;;;;;5.95;2.60;;;0.40;99.90;;;;;;4889626;29;20431;-94
2021/04/06 12:37:12;;;;;;;10.38;4.90;;;0.60;99.90;;;;;;5124387;23;20443;-95
2021/04/06 12:46:37;;;;;;;4.25;2.00;;;0.60;99.90;;;;;;1937689;23;20609;-93
2021/04/06 12:49:29;;;;;;;3.72;2.20;;;0.70;99.90;;;;;;4892479;29;20451;-96
2021/04/06 13:02:06;;;;;;;3.38;1.90;;;2.20;99.90;;;;;;5407216;23;20500;-95
2021/04/06 13:08:08;;;;;;;3.85;1.55;;;2.10;99.90;;;;;;5128171;23;20482;-95
2021/04/06 13:12:15;;;;;;;3.47;1.85;;;2.10;99.90;;;;;;4957585;29;20434;-96
2021/04/06 13:17:52;;;;;;;3.10;1.80;;;0.20;99.90;;;;;;4934975;29;20922;-95
2021/04/06 13:26:47;;;;;;;5.32;3.10;;;-0.90;99.90;;;;;;5398930;23;20442;-95
